sensor_id;sensor_type;location;lat;lon;timestamp;P1;durP1;ratioP1;P2;durP2;ratioP2
19804;SDS011;10062;51.052;13.756;2024-02-26T00:00:33;22.30;;;12.40;;
19804;SDS011;10062;51.052;13.756;2024-02-26T00:03:07;19.10;;;12.10;;
19804;SDS011;10062;51.052;13.756;2024-02-26T00:05:38;21.13;;;12.37;;
19804;SDS011;10062;51.052;13.756;2024-02-26T00:08:10;21.93;;;12.03;;
19804;SDS011;10062;51.052;13.756;2024-02-26T00:10:42;25.40;;;13.33;;
19804;SDS011;10062;51.052;13.756;2024-02-26T00:13:14;22.33;;;12.70;;
19804;SDS011;10062;51.052;13.756;2024-02-26T00:15:46;21.77;;;11.77;;
19804;SDS011;10062;51.052;13.756;2024-02-26T00:18:19;20.13;;;12.43;;
19804;SDS011;10062;51.052;13.756;2024-02-26T00:20:50;24.97;;;13.93;;
19804;SDS011;10062;51.052;13.756;2024-02-26T00:23:22;20.83;;;13.23;;
19804;SDS011;10062;51.052;13.756;2024-02-26T00:25:54;24.47;;;12.30;;
19804;SDS011;10062;51.052;13.756;2024-02-26T00:28:26;21.57;;;13.57;;
19804;SDS011;10062;51.052;13.756;2024-02-26T00:30:59;22.17;;;13.03;;
19804;SDS011;10062;51.052;13.756;2024-02-26T00:33:32;25.73;;;14.43;;
19804;SDS011;10062;51.052;13.756;2024-02-26T00:36:04;25.97;;;13.83;;
19804;SDS011;10062;51.052;13.756;2024-02-26T00:38:36;22.53;;;14.10;;
19804;SDS011;10062;51.052;13.756;2024-02-26T00:41:09;22.93;;;15.03;;
19804;SDS011;10062;51.052;13.756;2024-02-26T00:43:41;29.53;;;15.70;;
19804;SDS011;10062;51.052;13.756;2024-02-26T00:46:13;31.97;;;13.47;;
19804;SDS011;10062;51.052;13.756;2024-02-26T00:48:46;27.00;;;14.73;;
19804;SDS011;10062;51.052;13.756;2024-02-26T00:51:18;23.73;;;14.33;;
19804;SDS011;10062;51.052;13.756;2024-02-26T00:53:50;23.77;;;13.70;;
19804;SDS011;10062;51.052;13.756;2024-02-26T00:56:21;27.00;;;14.63;;
19804;SDS011;10062;51.052;13.756;2024-02-26T00:58:54;23.07;;;14.00;;
19804;SDS011;10062;51.052;13.756;2024-02-26T01:01:26;22.63;;;13.17;;
19804;SDS011;10062;51.052;13.756;2024-02-26T01:03:59;24.97;;;13.97;;
19804;SDS011;10062;51.052;13.756;2024-02-26T01:06:30;25.57;;;13.40;;
19804;SDS011;10062;51.052;13.756;2024-02-26T01:09:03;27.60;;;15.27;;
19804;SDS011;10062;51.052;13.756;2024-02-26T01:11:35;25.30;;;13.80;;
19804;SDS011;10062;51.052;13.756;2024-02-26T01:14:07;25.07;;;13.97;;
19804;SDS011;10062;51.052;13.756;2024-02-26T01:16:39;23.57;;;14.67;;
19804;SDS011;10062;51.052;13.756;2024-02-26T01:19:12;26.60;;;15.10;;
19804;SDS011;10062;51.052;13.756;2024-02-26T01:21:45;23.23;;;13.87;;
19804;SDS011;10062;51.052;13.756;2024-02-26T01:24:17;25.90;;;14.23;;
19804;SDS011;10062;51.052;13.756;2024-02-26T01:26:49;24.43;;;13.17;;
19804;SDS011;10062;51.052;13.756;2024-02-26T01:29:21;20.73;;;13.20;;
19804;SDS011;10062;51.052;13.756;2024-02-26T01:31:53;21.63;;;12.90;;
19804;SDS011;10062;51.052;13.756;2024-02-26T01:34:26;23.03;;;12.57;;
19804;SDS011;10062;51.052;13.756;2024-02-26T01:36:58;22.47;;;13.30;;
19804;SDS011;10062;51.052;13.756;2024-02-26T01:39:30;21.83;;;12.50;;
19804;SDS011;10062;51.052;13.756;2024-02-26T01:42:03;21.63;;;12.60;;
19804;SDS011;10062;51.052;13.756;2024-02-26T01:44:34;25.63;;;13.50;;
19804;SDS011;10062;51.052;13.756;2024-02-26T01:47:09;23.70;;;14.10;;
19804;SDS011;10062;51.052;13.756;2024-02-26T01:49:43;23.17;;;13.43;;
19804;SDS011;10062;51.052;13.756;2024-02-26T01:52:15;25.70;;;14.53;;
19804;SDS011;10062;51.052;13.756;2024-02-26T01:54:47;26.93;;;14.67;;
19804;SDS011;10062;51.052;13.756;2024-02-26T01:57:19;22.53;;;13.23;;
19804;SDS011;10062;51.052;13.756;2024-02-26T01:59:52;24.43;;;14.40;;
19804;SDS011;10062;51.052;13.756;2024-02-26T02:02:24;27.13;;;14.40;;
19804;SDS011;10062;51.052;13.756;2024-02-26T02:04:57;27.63;;;14.43;;
19804;SDS011;10062;51.052;13.756;2024-02-26T02:07:29;20.53;;;12.53;;
19804;SDS011;10062;51.052;13.756;2024-02-26T02:10:01;28.00;;;13.37;;
19804;SDS011;10062;51.052;13.756;2024-02-26T02:12:33;24.43;;;15.30;;
19804;SDS011;10062;51.052;13.756;2024-02-26T02:15:08;24.47;;;14.20;;
19804;SDS011;10062;51.052;13.756;2024-02-26T02:17:40;24.50;;;13.87;;
19804;SDS011;10062;51.052;13.756;2024-02-26T02:20:16;28.17;;;13.53;;
19804;SDS011;10062;51.052;13.756;2024-02-26T02:22:49;21.57;;;13.07;;
19804;SDS011;10062;51.052;13.756;2024-02-26T02:25:24;23.67;;;13.20;;
19804;SDS011;10062;51.052;13.756;2024-02-26T02:27:56;25.30;;;13.43;;
19804;SDS011;10062;51.052;13.756;2024-02-26T02:30:29;24.23;;;13.73;;
19804;SDS011;10062;51.052;13.756;2024-02-26T02:33:03;21.63;;;13.73;;
19804;SDS011;10062;51.052;13.756;2024-02-26T02:35:35;25.43;;;14.53;;
19804;SDS011;10062;51.052;13.756;2024-02-26T02:38:08;24.13;;;13.37;;
19804;SDS011;10062;51.052;13.756;2024-02-26T02:40:40;25.57;;;13.37;;
19804;SDS011;10062;51.052;13.756;2024-02-26T02:43:12;24.47;;;14.23;;
19804;SDS011;10062;51.052;13.756;2024-02-26T02:45:44;25.03;;;13.63;;
19804;SDS011;10062;51.052;13.756;2024-02-26T02:48:16;24.47;;;14.17;;
19804;SDS011;10062;51.052;13.756;2024-02-26T02:50:48;22.03;;;13.23;;
19804;SDS011;10062;51.052;13.756;2024-02-26T02:53:21;21.47;;;13.23;;
19804;SDS011;10062;51.052;13.756;2024-02-26T02:55:53;23.47;;;14.10;;
19804;SDS011;10062;51.052;13.756;2024-02-26T02:58:25;21.73;;;13.23;;
19804;SDS011;10062;51.052;13.756;2024-02-26T03:00:57;28.43;;;14.80;;
19804;SDS011;10062;51.052;13.756;2024-02-26T03:03:30;26.43;;;14.57;;
19804;SDS011;10062;51.052;13.756;2024-02-26T03:06:02;22.83;;;13.60;;
19804;SDS011;10062;51.052;13.756;2024-02-26T03:08:35;22.57;;;13.13;;
19804;SDS011;10062;51.052;13.756;2024-02-26T03:11:12;28.93;;;14.63;;
19804;SDS011;10062;51.052;13.756;2024-02-26T03:13:44;28.47;;;14.60;;
19804;SDS011;10062;51.052;13.756;2024-02-26T03:16:17;25.00;;;14.13;;
19804;SDS011;10062;51.052;13.756;2024-02-26T03:18:49;24.07;;;14.00;;
19804;SDS011;10062;51.052;13.756;2024-02-26T03:21:21;22.50;;;13.33;;
19804;SDS011;10062;51.052;13.756;2024-02-26T03:23:54;25.77;;;13.40;;
19804;SDS011;10062;51.052;13.756;2024-02-26T03:26:26;26.20;;;13.67;;
19804;SDS011;10062;51.052;13.756;2024-02-26T03:28:57;22.10;;;13.20;;
19804;SDS011;10062;51.052;13.756;2024-02-26T03:31:29;23.40;;;13.03;;
19804;SDS011;10062;51.052;13.756;2024-02-26T03:34:01;23.10;;;14.43;;
19804;SDS011;10062;51.052;13.756;2024-02-26T03:36:33;24.50;;;13.33;;
19804;SDS011;10062;51.052;13.756;2024-02-26T03:39:07;21.43;;;13.73;;
19804;SDS011;10062;51.052;13.756;2024-02-26T03:41:39;24.10;;;13.97;;
19804;SDS011;10062;51.052;13.756;2024-02-26T03:44:11;24.27;;;13.00;;
19804;SDS011;10062;51.052;13.756;2024-02-26T03:46:43;28.07;;;13.50;;
19804;SDS011;10062;51.052;13.756;2024-02-26T03:49:15;27.73;;;14.87;;
19804;SDS011;10062;51.052;13.756;2024-02-26T03:51:46;25.47;;;14.60;;
19804;SDS011;10062;51.052;13.756;2024-02-26T03:54:20;22.50;;;13.10;;
19804;SDS011;10062;51.052;13.756;2024-02-26T03:56:52;24.20;;;13.17;;
19804;SDS011;10062;51.052;13.756;2024-02-26T03:59:24;22.90;;;12.87;;
19804;SDS011;10062;51.052;13.756;2024-02-26T04:01:56;25.40;;;14.57;;
19804;SDS011;10062;51.052;13.756;2024-02-26T04:04:28;23.87;;;13.43;;
19804;SDS011;10062;51.052;13.756;2024-02-26T04:06:59;24.53;;;13.30;;
19804;SDS011;10062;51.052;13.756;2024-02-26T04:09:32;27.83;;;15.27;;
19804;SDS011;10062;51.052;13.756;2024-02-26T04:12:05;26.50;;;13.47;;
19804;SDS011;10062;51.052;13.756;2024-02-26T04:14:37;23.67;;;13.00;;
19804;SDS011;10062;51.052;13.756;2024-02-26T04:17:09;24.17;;;13.43;;
19804;SDS011;10062;51.052;13.756;2024-02-26T04:19:42;23.13;;;13.90;;
19804;SDS011;10062;51.052;13.756;2024-02-26T04:22:14;27.50;;;13.67;;
19804;SDS011;10062;51.052;13.756;2024-02-26T04:24:47;24.40;;;14.17;;
19804;SDS011;10062;51.052;13.756;2024-02-26T04:27:19;26.50;;;14.57;;
19804;SDS011;10062;51.052;13.756;2024-02-26T04:29:51;25.00;;;13.40;;
19804;SDS011;10062;51.052;13.756;2024-02-26T04:32:22;26.83;;;14.27;;
19804;SDS011;10062;51.052;13.756;2024-02-26T04:34:54;25.67;;;13.53;;
19804;SDS011;10062;51.052;13.756;2024-02-26T04:37:26;23.07;;;13.40;;
19804;SDS011;10062;51.052;13.756;2024-02-26T04:40:02;23.93;;;12.90;;
19804;SDS011;10062;51.052;13.756;2024-02-26T04:42:35;24.17;;;14.23;;
19804;SDS011;10062;51.052;13.756;2024-02-26T04:45:07;25.07;;;13.63;;
19804;SDS011;10062;51.052;13.756;2024-02-26T04:47:39;26.80;;;14.63;;
19804;SDS011;10062;51.052;13.756;2024-02-26T04:50:11;24.17;;;13.30;;
19804;SDS011;10062;51.052;13.756;2024-02-26T04:52:43;26.70;;;13.40;;
19804;SDS011;10062;51.052;13.756;2024-02-26T04:55:16;24.27;;;14.03;;
19804;SDS011;10062;51.052;13.756;2024-02-26T04:57:48;26.67;;;14.07;;
19804;SDS011;10062;51.052;13.756;2024-02-26T05:00:20;20.63;;;13.00;;
19804;SDS011;10062;51.052;13.756;2024-02-26T05:02:52;26.73;;;13.47;;
19804;SDS011;10062;51.052;13.756;2024-02-26T05:05:23;21.27;;;11.93;;
19804;SDS011;10062;51.052;13.756;2024-02-26T05:07:55;21.07;;;12.53;;
19804;SDS011;10062;51.052;13.756;2024-02-26T05:10:28;25.53;;;12.87;;
19804;SDS011;10062;51.052;13.756;2024-02-26T05:13:00;26.80;;;12.83;;
19804;SDS011;10062;51.052;13.756;2024-02-26T05:15:32;26.30;;;12.83;;
19804;SDS011;10062;51.052;13.756;2024-02-26T05:18:04;24.37;;;13.97;;
19804;SDS011;10062;51.052;13.756;2024-02-26T05:20:37;22.67;;;12.77;;
19804;SDS011;10062;51.052;13.756;2024-02-26T05:23:09;22.07;;;12.13;;
19804;SDS011;10062;51.052;13.756;2024-02-26T05:25:43;21.27;;;12.37;;
19804;SDS011;10062;51.052;13.756;2024-02-26T05:28:17;24.20;;;11.83;;
19804;SDS011;10062;51.052;13.756;2024-02-26T05:30:50;27.03;;;13.17;;
19804;SDS011;10062;51.052;13.756;2024-02-26T05:33:22;28.80;;;14.70;;
19804;SDS011;10062;51.052;13.756;2024-02-26T05:35:55;23.87;;;13.57;;
19804;SDS011;10062;51.052;13.756;2024-02-26T05:38:27;24.40;;;12.30;;
19804;SDS011;10062;51.052;13.756;2024-02-26T05:41:00;25.23;;;13.43;;
19804;SDS011;10062;51.052;13.756;2024-02-26T05:43:32;22.50;;;11.83;;
19804;SDS011;10062;51.052;13.756;2024-02-26T05:46:05;24.60;;;13.40;;
19804;SDS011;10062;51.052;13.756;2024-02-26T05:48:37;23.53;;;12.70;;
19804;SDS011;10062;51.052;13.756;2024-02-26T05:51:09;27.63;;;14.10;;
19804;SDS011;10062;51.052;13.756;2024-02-26T05:53:41;23.33;;;13.20;;
19804;SDS011;10062;51.052;13.756;2024-02-26T05:56:14;22.77;;;12.80;;
19804;SDS011;10062;51.052;13.756;2024-02-26T05:58:46;19.40;;;11.57;;
19804;SDS011;10062;51.052;13.756;2024-02-26T06:01:19;22.30;;;12.57;;
19804;SDS011;10062;51.052;13.756;2024-02-26T06:03:51;24.03;;;12.60;;
19804;SDS011;10062;51.052;13.756;2024-02-26T06:06:23;27.10;;;12.40;;
19804;SDS011;10062;51.052;13.756;2024-02-26T06:08:55;26.23;;;13.97;;
19804;SDS011;10062;51.052;13.756;2024-02-26T06:11:28;21.37;;;11.97;;
19804;SDS011;10062;51.052;13.756;2024-02-26T06:14:00;23.23;;;12.03;;
19804;SDS011;10062;51.052;13.756;2024-02-26T06:16:31;22.33;;;12.47;;
19804;SDS011;10062;51.052;13.756;2024-02-26T06:19:04;26.30;;;13.33;;
19804;SDS011;10062;51.052;13.756;2024-02-26T06:21:37;21.00;;;12.20;;
19804;SDS011;10062;51.052;13.756;2024-02-26T06:24:08;25.53;;;14.03;;
19804;SDS011;10062;51.052;13.756;2024-02-26T06:26:41;22.07;;;13.13;;
19804;SDS011;10062;51.052;13.756;2024-02-26T06:29:14;26.60;;;13.73;;
19804;SDS011;10062;51.052;13.756;2024-02-26T06:31:46;23.07;;;12.17;;
19804;SDS011;10062;51.052;13.756;2024-02-26T06:34:20;19.70;;;11.60;;
19804;SDS011;10062;51.052;13.756;2024-02-26T06:36:52;23.33;;;12.10;;
19804;SDS011;10062;51.052;13.756;2024-02-26T06:39:24;24.53;;;12.00;;
19804;SDS011;10062;51.052;13.756;2024-02-26T06:41:57;19.67;;;11.53;;
19804;SDS011;10062;51.052;13.756;2024-02-26T06:44:31;24.27;;;12.70;;
19804;SDS011;10062;51.052;13.756;2024-02-26T06:47:03;25.87;;;13.37;;
19804;SDS011;10062;51.052;13.756;2024-02-26T06:49:35;23.70;;;11.90;;
19804;SDS011;10062;51.052;13.756;2024-02-26T06:52:07;23.87;;;13.83;;
19804;SDS011;10062;51.052;13.756;2024-02-26T06:54:39;23.70;;;12.73;;
19804;SDS011;10062;51.052;13.756;2024-02-26T06:57:13;21.53;;;11.83;;
19804;SDS011;10062;51.052;13.756;2024-02-26T06:59:45;21.80;;;11.57;;
19804;SDS011;10062;51.052;13.756;2024-02-26T07:02:17;20.57;;;12.20;;
19804;SDS011;10062;51.052;13.756;2024-02-26T07:04:49;25.13;;;12.33;;
19804;SDS011;10062;51.052;13.756;2024-02-26T07:07:21;18.97;;;11.33;;
19804;SDS011;10062;51.052;13.756;2024-02-26T07:09:54;20.27;;;11.57;;
19804;SDS011;10062;51.052;13.756;2024-02-26T07:12:27;25.70;;;11.27;;
19804;SDS011;10062;51.052;13.756;2024-02-26T07:14:59;19.90;;;11.20;;
19804;SDS011;10062;51.052;13.756;2024-02-26T07:17:32;20.43;;;11.27;;
19804;SDS011;10062;51.052;13.756;2024-02-26T07:20:05;20.93;;;11.03;;
19804;SDS011;10062;51.052;13.756;2024-02-26T07:22:37;19.57;;;11.50;;
19804;SDS011;10062;51.052;13.756;2024-02-26T07:25:09;19.23;;;11.07;;
19804;SDS011;10062;51.052;13.756;2024-02-26T07:27:44;18.50;;;10.87;;
19804;SDS011;10062;51.052;13.756;2024-02-26T07:30:16;26.43;;;10.30;;
19804;SDS011;10062;51.052;13.756;2024-02-26T07:32:49;22.90;;;9.90;;
19804;SDS011;10062;51.052;13.756;2024-02-26T07:35:21;17.93;;;10.37;;
19804;SDS011;10062;51.052;13.756;2024-02-26T07:37:53;14.73;;;9.73;;
19804;SDS011;10062;51.052;13.756;2024-02-26T07:40:25;18.90;;;9.70;;
19804;SDS011;10062;51.052;13.756;2024-02-26T07:42:58;18.50;;;9.73;;
19804;SDS011;10062;51.052;13.756;2024-02-26T07:45:30;18.73;;;10.00;;
19804;SDS011;10062;51.052;13.756;2024-02-26T07:48:02;18.60;;;10.23;;
19804;SDS011;10062;51.052;13.756;2024-02-26T07:50:34;19.23;;;10.57;;
19804;SDS011;10062;51.052;13.756;2024-02-26T07:53:06;22.90;;;9.93;;
19804;SDS011;10062;51.052;13.756;2024-02-26T07:55:38;25.90;;;10.70;;
19804;SDS011;10062;51.052;13.756;2024-02-26T07:58:11;19.77;;;9.67;;
19804;SDS011;10062;51.052;13.756;2024-02-26T08:00:43;18.73;;;9.20;;
19804;SDS011;10062;51.052;13.756;2024-02-26T08:03:16;17.37;;;10.83;;
19804;SDS011;10062;51.052;13.756;2024-02-26T08:05:48;21.63;;;11.63;;
19804;SDS011;10062;51.052;13.756;2024-02-26T08:08:20;23.23;;;12.13;;
19804;SDS011;10062;51.052;13.756;2024-02-26T08:10:52;15.20;;;9.70;;
19804;SDS011;10062;51.052;13.756;2024-02-26T08:13:26;21.93;;;9.87;;
19804;SDS011;10062;51.052;13.756;2024-02-26T08:15:57;15.83;;;8.90;;
19804;SDS011;10062;51.052;13.756;2024-02-26T08:18:29;14.87;;;7.77;;
19804;SDS011;10062;51.052;13.756;2024-02-26T08:21:01;22.00;;;10.63;;
19804;SDS011;10062;51.052;13.756;2024-02-26T08:23:33;20.03;;;10.47;;
19804;SDS011;10062;51.052;13.756;2024-02-26T08:26:05;20.33;;;10.07;;
19804;SDS011;10062;51.052;13.756;2024-02-26T08:28:41;18.47;;;9.30;;
19804;SDS011;10062;51.052;13.756;2024-02-26T08:31:14;14.60;;;7.60;;
19804;SDS011;10062;51.052;13.756;2024-02-26T08:33:46;13.27;;;7.87;;
19804;SDS011;10062;51.052;13.756;2024-02-26T08:36:18;13.73;;;8.13;;
19804;SDS011;10062;51.052;13.756;2024-02-26T08:38:50;14.57;;;8.33;;
19804;SDS011;10062;51.052;13.756;2024-02-26T08:41:22;12.73;;;6.70;;
19804;SDS011;10062;51.052;13.756;2024-02-26T08:43:56;15.30;;;7.77;;
19804;SDS011;10062;51.052;13.756;2024-02-26T08:46:29;16.33;;;7.67;;
19804;SDS011;10062;51.052;13.756;2024-02-26T08:49:00;15.30;;;7.57;;
19804;SDS011;10062;51.052;13.756;2024-02-26T08:51:32;13.33;;;7.80;;
19804;SDS011;10062;51.052;13.756;2024-02-26T08:54:04;15.60;;;7.70;;
19804;SDS011;10062;51.052;13.756;2024-02-26T08:56:37;13.37;;;7.60;;
19804;SDS011;10062;51.052;13.756;2024-02-26T08:59:10;17.40;;;7.03;;
19804;SDS011;10062;51.052;13.756;2024-02-26T09:01:42;13.50;;;6.73;;
19804;SDS011;10062;51.052;13.756;2024-02-26T09:04:13;13.80;;;7.77;;
19804;SDS011;10062;51.052;13.756;2024-02-26T09:06:45;16.03;;;5.97;;
19804;SDS011;10062;51.052;13.756;2024-02-26T09:09:17;13.27;;;7.33;;
19804;SDS011;10062;51.052;13.756;2024-02-26T09:11:50;11.00;;;4.63;;
19804;SDS011;10062;51.052;13.756;2024-02-26T09:14:23;16.47;;;9.00;;
19804;SDS011;10062;51.052;13.756;2024-02-26T09:16:55;16.53;;;7.83;;
19804;SDS011;10062;51.052;13.756;2024-02-26T09:19:26;13.43;;;7.87;;
19804;SDS011;10062;51.052;13.756;2024-02-26T09:21:58;15.33;;;8.03;;
19804;SDS011;10062;51.052;13.756;2024-02-26T09:24:30;14.53;;;7.20;;
19804;SDS011;10062;51.052;13.756;2024-02-26T09:27:02;19.57;;;8.70;;
19804;SDS011;10062;51.052;13.756;2024-02-26T09:29:36;12.13;;;6.87;;
19804;SDS011;10062;51.052;13.756;2024-02-26T09:32:08;14.90;;;8.50;;
19804;SDS011;10062;51.052;13.756;2024-02-26T09:34:40;14.10;;;8.03;;
19804;SDS011;10062;51.052;13.756;2024-02-26T09:37:12;11.83;;;8.17;;
19804;SDS011;10062;51.052;13.756;2024-02-26T09:39:44;14.60;;;8.57;;
19804;SDS011;10062;51.052;13.756;2024-02-26T09:42:17;14.70;;;7.40;;
19804;SDS011;10062;51.052;13.756;2024-02-26T09:44:53;16.57;;;8.50;;
19804;SDS011;10062;51.052;13.756;2024-02-26T09:47:26;12.43;;;7.00;;
19804;SDS011;10062;51.052;13.756;2024-02-26T09:50:01;10.10;;;6.03;;
19804;SDS011;10062;51.052;13.756;2024-02-26T09:52:34;14.70;;;7.47;;
19804;SDS011;10062;51.052;13.756;2024-02-26T09:55:09;19.23;;;8.10;;
19804;SDS011;10062;51.052;13.756;2024-02-26T09:57:42;17.37;;;8.90;;
19804;SDS011;10062;51.052;13.756;2024-02-26T10:00:18;15.60;;;7.60;;
19804;SDS011;10062;51.052;13.756;2024-02-26T10:02:51;13.10;;;7.53;;
19804;SDS011;10062;51.052;13.756;2024-02-26T10:05:23;14.90;;;7.20;;
19804;SDS011;10062;51.052;13.756;2024-02-26T10:07:56;9.03;;;5.20;;
19804;SDS011;10062;51.052;13.756;2024-02-26T10:10:30;11.77;;;7.10;;
19804;SDS011;10062;51.052;13.756;2024-02-26T10:13:02;13.63;;;7.43;;
19804;SDS011;10062;51.052;13.756;2024-02-26T10:15:41;13.47;;;7.20;;
19804;SDS011;10062;51.052;13.756;2024-02-26T10:18:13;11.93;;;5.00;;
19804;SDS011;10062;51.052;13.756;2024-02-26T10:20:57;15.90;;;8.53;;
19804;SDS011;10062;51.052;13.756;2024-02-26T10:23:30;13.30;;;7.77;;
19804;SDS011;10062;51.052;13.756;2024-02-26T10:26:02;13.27;;;9.03;;
19804;SDS011;10062;51.052;13.756;2024-02-26T10:28:34;15.10;;;7.83;;
19804;SDS011;10062;51.052;13.756;2024-02-26T10:31:08;15.20;;;8.60;;
19804;SDS011;10062;51.052;13.756;2024-02-26T10:33:41;12.43;;;6.73;;
19804;SDS011;10062;51.052;13.756;2024-02-26T10:36:14;11.37;;;7.20;;
19804;SDS011;10062;51.052;13.756;2024-02-26T10:38:46;12.93;;;6.43;;
19804;SDS011;10062;51.052;13.756;2024-02-26T10:41:18;14.30;;;7.10;;
19804;SDS011;10062;51.052;13.756;2024-02-26T10:43:50;11.90;;;6.70;;
19804;SDS011;10062;51.052;13.756;2024-02-26T10:46:24;8.17;;;4.03;;
19804;SDS011;10062;51.052;13.756;2024-02-26T10:48:56;7.47;;;5.03;;
19804;SDS011;10062;51.052;13.756;2024-02-26T10:51:30;12.50;;;7.10;;
19804;SDS011;10062;51.052;13.756;2024-02-26T10:54:02;8.90;;;4.80;;
19804;SDS011;10062;51.052;13.756;2024-02-26T10:56:37;12.20;;;7.87;;
19804;SDS011;10062;51.052;13.756;2024-02-26T10:59:13;9.57;;;5.40;;
19804;SDS011;10062;51.052;13.756;2024-02-26T11:01:47;10.57;;;6.00;;
19804;SDS011;10062;51.052;13.756;2024-02-26T11:04:20;12.73;;;7.33;;
19804;SDS011;10062;51.052;13.756;2024-02-26T11:06:55;10.47;;;5.63;;
19804;SDS011;10062;51.052;13.756;2024-02-26T11:09:28;13.37;;;6.93;;
19804;SDS011;10062;51.052;13.756;2024-02-26T11:12:00;11.17;;;6.67;;
19804;SDS011;10062;51.052;13.756;2024-02-26T11:14:38;11.97;;;6.37;;
19804;SDS011;10062;51.052;13.756;2024-02-26T11:17:13;15.63;;;7.33;;
19804;SDS011;10062;51.052;13.756;2024-02-26T11:19:47;12.63;;;6.63;;
19804;SDS011;10062;51.052;13.756;2024-02-26T11:22:20;10.03;;;6.13;;
19804;SDS011;10062;51.052;13.756;2024-02-26T11:24:53;15.10;;;7.97;;
19804;SDS011;10062;51.052;13.756;2024-02-26T11:27:29;13.63;;;7.60;;
19804;SDS011;10062;51.052;13.756;2024-02-26T11:30:05;15.93;;;7.13;;
19804;SDS011;10062;51.052;13.756;2024-02-26T11:32:42;10.10;;;6.10;;
19804;SDS011;10062;51.052;13.756;2024-02-26T11:35:15;15.63;;;8.10;;
19804;SDS011;10062;51.052;13.756;2024-02-26T11:37:53;13.73;;;6.70;;
19804;SDS011;10062;51.052;13.756;2024-02-26T11:40:26;9.83;;;6.40;;
19804;SDS011;10062;51.052;13.756;2024-02-26T11:42:58;13.37;;;6.77;;
19804;SDS011;10062;51.052;13.756;2024-02-26T11:45:49;12.60;;;6.27;;
19804;SDS011;10062;51.052;13.756;2024-02-26T11:48:24;14.20;;;7.40;;
19804;SDS011;10062;51.052;13.756;2024-02-26T11:50:56;13.37;;;6.60;;
19804;SDS011;10062;51.052;13.756;2024-02-26T11:53:30;11.50;;;6.67;;
19804;SDS011;10062;51.052;13.756;2024-02-26T11:56:23;13.60;;;6.50;;
19804;SDS011;10062;51.052;13.756;2024-02-26T11:58:57;10.97;;;6.67;;
19804;SDS011;10062;51.052;13.756;2024-02-26T12:01:42;10.83;;;5.70;;
19804;SDS011;10062;51.052;13.756;2024-02-26T12:04:21;12.03;;;6.17;;
19804;SDS011;10062;51.052;13.756;2024-02-26T12:06:56;8.63;;;5.43;;
19804;SDS011;10062;51.052;13.756;2024-02-26T12:09:30;13.07;;;7.10;;
19804;SDS011;10062;51.052;13.756;2024-02-26T12:12:03;12.90;;;6.90;;
19804;SDS011;10062;51.052;13.756;2024-02-26T12:14:39;13.57;;;6.67;;
19804;SDS011;10062;51.052;13.756;2024-02-26T12:17:22;10.10;;;5.80;;
19804;SDS011;10062;51.052;13.756;2024-02-26T12:19:56;9.27;;;5.93;;
19804;SDS011;10062;51.052;13.756;2024-02-26T12:22:39;11.03;;;6.37;;
19804;SDS011;10062;51.052;13.756;2024-02-26T12:25:12;13.93;;;7.00;;
19804;SDS011;10062;51.052;13.756;2024-02-26T12:27:44;12.70;;;6.07;;
19804;SDS011;10062;51.052;13.756;2024-02-26T12:30:18;10.20;;;6.47;;
19804;SDS011;10062;51.052;13.756;2024-02-26T12:32:50;11.40;;;6.47;;
19804;SDS011;10062;51.052;13.756;2024-02-26T12:35:28;10.67;;;5.73;;
19804;SDS011;10062;51.052;13.756;2024-02-26T12:38:01;11.03;;;6.40;;
19804;SDS011;10062;51.052;13.756;2024-02-26T12:40:35;12.87;;;7.30;;
19804;SDS011;10062;51.052;13.756;2024-02-26T12:43:07;11.83;;;6.40;;
19804;SDS011;10062;51.052;13.756;2024-02-26T12:45:42;11.17;;;6.40;;
19804;SDS011;10062;51.052;13.756;2024-02-26T12:48:16;10.80;;;6.57;;
19804;SDS011;10062;51.052;13.756;2024-02-26T12:50:49;11.33;;;6.53;;
19804;SDS011;10062;51.052;13.756;2024-02-26T12:53:21;11.77;;;5.97;;
19804;SDS011;10062;51.052;13.756;2024-02-26T12:55:53;10.43;;;6.97;;
19804;SDS011;10062;51.052;13.756;2024-02-26T12:58:26;12.10;;;6.63;;
19804;SDS011;10062;51.052;13.756;2024-02-26T13:00:58;9.90;;;5.97;;
19804;SDS011;10062;51.052;13.756;2024-02-26T13:03:30;9.60;;;5.57;;
19804;SDS011;10062;51.052;13.756;2024-02-26T13:06:05;10.57;;;5.77;;
19804;SDS011;10062;51.052;13.756;2024-02-26T13:08:37;10.53;;;5.77;;
19804;SDS011;10062;51.052;13.756;2024-02-26T13:11:10;10.37;;;6.17;;
19804;SDS011;10062;51.052;13.756;2024-02-26T13:13:42;12.07;;;6.87;;
19804;SDS011;10062;51.052;13.756;2024-02-26T13:16:14;13.27;;;5.97;;
19804;SDS011;10062;51.052;13.756;2024-02-26T13:18:47;13.17;;;6.13;;
19804;SDS011;10062;51.052;13.756;2024-02-26T13:21:20;11.77;;;6.30;;
19804;SDS011;10062;51.052;13.756;2024-02-26T13:23:52;9.03;;;5.83;;
19804;SDS011;10062;51.052;13.756;2024-02-26T13:26:24;11.83;;;6.07;;
19804;SDS011;10062;51.052;13.756;2024-02-26T13:29:00;10.73;;;5.83;;
19804;SDS011;10062;51.052;13.756;2024-02-26T13:31:38;10.90;;;6.03;;
19804;SDS011;10062;51.052;13.756;2024-02-26T13:34:10;10.20;;;6.30;;
19804;SDS011;10062;51.052;13.756;2024-02-26T13:36:43;8.50;;;5.17;;
19804;SDS011;10062;51.052;13.756;2024-02-26T13:39:20;10.23;;;5.80;;
19804;SDS011;10062;51.052;13.756;2024-02-26T13:41:53;8.80;;;5.33;;
19804;SDS011;10062;51.052;13.756;2024-02-26T13:44:27;10.93;;;5.60;;
19804;SDS011;10062;51.052;13.756;2024-02-26T13:46:59;12.00;;;6.67;;
19804;SDS011;10062;51.052;13.756;2024-02-26T13:49:30;12.40;;;6.67;;
19804;SDS011;10062;51.052;13.756;2024-02-26T13:52:04;12.80;;;6.40;;
19804;SDS011;10062;51.052;13.756;2024-02-26T13:54:36;14.03;;;6.37;;
19804;SDS011;10062;51.052;13.756;2024-02-26T13:57:10;10.90;;;6.20;;
19804;SDS011;10062;51.052;13.756;2024-02-26T13:59:42;13.87;;;7.13;;
19804;SDS011;10062;51.052;13.756;2024-02-26T14:02:14;10.87;;;6.70;;
19804;SDS011;10062;51.052;13.756;2024-02-26T14:04:47;12.13;;;7.20;;
19804;SDS011;10062;51.052;13.756;2024-02-26T14:07:20;13.57;;;7.17;;
19804;SDS011;10062;51.052;13.756;2024-02-26T14:09:52;13.33;;;6.63;;
19804;SDS011;10062;51.052;13.756;2024-02-26T14:12:23;11.83;;;7.13;;
19804;SDS011;10062;51.052;13.756;2024-02-26T14:14:55;14.60;;;7.33;;
19804;SDS011;10062;51.052;13.756;2024-02-26T14:17:30;9.87;;;6.50;;
19804;SDS011;10062;51.052;13.756;2024-02-26T14:20:02;12.20;;;6.77;;
19804;SDS011;10062;51.052;13.756;2024-02-26T14:22:36;12.30;;;6.77;;
19804;SDS011;10062;51.052;13.756;2024-02-26T14:25:08;11.47;;;6.50;;
19804;SDS011;10062;51.052;13.756;2024-02-26T14:27:41;13.87;;;7.27;;
19804;SDS011;10062;51.052;13.756;2024-02-26T14:30:12;12.33;;;7.47;;
19804;SDS011;10062;51.052;13.756;2024-02-26T14:32:45;11.47;;;6.33;;
19804;SDS011;10062;51.052;13.756;2024-02-26T14:35:17;11.07;;;6.80;;
19804;SDS011;10062;51.052;13.756;2024-02-26T14:37:50;16.50;;;7.20;;
19804;SDS011;10062;51.052;13.756;2024-02-26T14:40:22;13.00;;;6.73;;
19804;SDS011;10062;51.052;13.756;2024-02-26T14:42:54;11.00;;;6.60;;
19804;SDS011;10062;51.052;13.756;2024-02-26T14:45:27;13.67;;;7.70;;
19804;SDS011;10062;51.052;13.756;2024-02-26T14:47:59;10.80;;;5.83;;